Terminal Aerodrome Forecast
Issued by NWS

Home | Current Version | Previous Version | Graphics & Text | Print | Product List | Glossary On
Versions: 1 2 3 4 5 6 7 8 9 10 11 12 13
000
FTUS41 KCLE 272300
TAFFDY
TAF
KFDY 272328Z 2800/2824 18012KT P6SM BKN150
     FM280200 21010KT P6SM BKN100 WS020/22045KT
     FM281400 22015G25KT 4SM SHRA VCTS OVC040CB
     FM281800 25015G25KT P6SM OVC025
      TEMPO 2818/2821 -SHRA=

USA.gov is the U.S. government's official web portal to all federal, state and local government web resources and services.